This is the latest recevied weather packets stored in our database for station/object JF7ELG-13. If no packets are shown the sender has not sent any weather packets the latest 10 day(s).
| Time | Temp. | Humidity | Pressure | Rain* | Wind** | Luminosity | Snow |
|---|---|---|---|---|---|---|---|
| 1777667640 | 14.44° C | 65% | 991.4 hPa | 0 mm | - | - | - |
| 1777666706 | 14.44° C | 68% | 990.4 hPa | 0 mm | - | - | - |
| 1777665804 | 15° C | 68% | 990.5 hPa | 0 mm | - | - | - |
| 1777664928 | 15.56° C | 67% | 990 hPa | 0 mm | - | - | - |
| 1777663998 | 16.11° C | 67% | 990 hPa | 0 mm | - | - | - |
| 1777663112 | 15.56° C | 73% | 989.2 hPa | 0 mm | - | - | - |
| 1777662197 | 15.56° C | 74% | 988.4 hPa | 0 mm | - | - | - |
| 1777661318 | 16.11° C | 73% | 988.2 hPa | 0 mm | - | - | - |
| 1777660398 | 16.11° C | 71% | 987.1 hPa | 0 mm | - | - | - |
| 1777659515 | 16.11° C | 71% | 987 hPa | 0 mm | - | - | - |
| 1777658620 | 16.11° C | 72% | 986.5 hPa | 0 mm | - | - | - |
| 1777657696 | 16.11° C | 72% | 986.1 hPa | 0 mm | - | - | - |
| 1777656834 | 15.56° C | 74% | 986 hPa | 0 mm | - | - | - |
| 1777655919 | 15° C | 76% | 985.7 hPa | 0 mm | - | - | - |
| 1777654993 | 14.44° C | 78% | 985.4 hPa | 0 mm | - | - | - |
| 1777654121 | 14.44° C | 78% | 985.1 hPa | 0 mm | - | - | - |
| 1777653194 | 13.89° C | 80% | 985.6 hPa | 0 mm | - | - | - |
| 1777652314 | 13.33° C | 80% | 985.5 hPa | 0 mm | - | - | - |
| 1777651420 | 13.33° C | 81% | 985.7 hPa | 0 mm | - | - | - |
| 1777650516 | 13.89° C | 81% | 985.9 hPa | 0 mm | - | - | - |
| 1777649625 | 13.89° C | 77% | 986.1 hPa | 0 mm | - | - | - |
| 1777648703 | 13.89° C | 80% | 986.2 hPa | 0 mm | - | - | - |
| 1777647811 | 13.33° C | 82% | 986.3 hPa | 0 mm | - | - | - |
| 1777646909 | 13.33° C | 85% | 986.1 hPa | 0 mm | - | - | - |
| 1777646013 | 14.44° C | 81% | 986.5 hPa | 0 mm | - | - | - |
* Rain latest hour (hover to see other rain measurements)
** Current wind speed in m/s (hover to see current wind gust speed)